sensor_id;sensor_type;location;lat;lon;timestamp;pressure;altitude;pressure_sealevel;temperature;humidity
34241;BME280;20503;50.200;19.508;2023-02-18T00:02:26;101250.12;;;8.78;100.00
34241;BME280;20503;50.200;19.508;2023-02-18T00:07:35;101244.59;;;8.86;100.00
34241;BME280;20503;50.200;19.508;2023-02-18T00:12:42;101251.85;;;8.94;100.00
34241;BME280;20503;50.200;19.508;2023-02-18T00:17:50;101250.06;;;9.01;100.00
34241;BME280;20503;50.200;19.508;2023-02-18T00:22:58;101247.15;;;9.02;100.00
34241;BME280;20503;50.200;19.508;2023-02-18T00:28:04;101247.25;;;9.09;100.00
34241;BME280;20503;50.200;19.508;2023-02-18T00:33:12;101248.95;;;9.10;100.00
34241;BME280;20503;50.200;19.508;2023-02-18T00:38:19;101256.20;;;9.17;100.00
34241;BME280;20503;50.200;19.508;2023-02-18T00:43:27;101274.46;;;9.17;100.00
34241;BME280;20503;50.200;19.508;2023-02-18T00:48:35;101308.15;;;8.95;100.00
34241;BME280;20503;50.200;19.508;2023-02-18T00:53:42;101308.01;;;8.74;100.00
34241;BME280;20503;50.200;19.508;2023-02-18T00:58:50;101343.04;;;8.62;100.00
34241;BME280;20503;50.200;19.508;2023-02-18T01:03:57;101349.48;;;8.47;100.00
34241;BME280;20503;50.200;19.508;2023-02-18T01:09:06;101356.80;;;8.24;100.00
34241;BME280;20503;50.200;19.508;2023-02-18T01:14:13;101357.16;;;8.13;100.00
34241;BME280;20503;50.200;19.508;2023-02-18T01:19:21;101360.12;;;8.03;100.00
34241;BME280;20503;50.200;19.508;2023-02-18T01:24:28;101364.24;;;7.91;100.00
34241;BME280;20503;50.200;19.508;2023-02-18T01:29:36;101387.29;;;7.81;100.00
34241;BME280;20503;50.200;19.508;2023-02-18T01:34:44;101385.13;;;7.68;100.00
34241;BME280;20503;50.200;19.508;2023-02-18T01:39:51;101387.02;;;7.60;100.00
34241;BME280;20503;50.200;19.508;2023-02-18T01:50:12;101388.58;;;7.46;100.00
34241;BME280;20503;50.200;19.508;2023-02-18T01:55:15;101395.39;;;7.50;100.00
34241;BME280;20503;50.200;19.508;2023-02-18T02:00:22;101398.80;;;7.44;100.00
34241;BME280;20503;50.200;19.508;2023-02-18T02:05:34;101387.42;;;7.33;100.00
34241;BME280;20503;50.200;19.508;2023-02-18T02:16:04;101393.18;;;7.46;100.00
34241;BME280;20503;50.200;19.508;2023-02-18T07:01:30;101544.69;;;7.47;63.34
34241;BME280;20503;50.200;19.508;2023-02-18T07:06:37;101564.61;;;7.71;62.77
34241;BME280;20503;50.200;19.508;2023-02-18T07:11:45;101572.61;;;7.81;60.52
34241;BME280;20503;50.200;19.508;2023-02-18T07:16:52;101556.77;;;7.76;60.96
34241;BME280;20503;50.200;19.508;2023-02-18T07:22:00;101564.61;;;7.71;60.60
34241;BME280;20503;50.200;19.508;2023-02-18T07:27:08;101555.26;;;7.58;61.01
34241;BME280;20503;50.200;19.508;2023-02-18T07:32:16;101572.96;;;7.62;60.30
34241;BME280;20503;50.200;19.508;2023-02-18T07:37:22;101566.81;;;7.68;60.60
34241;BME280;20503;50.200;19.508;2023-02-18T07:42:30;101568.34;;;7.62;60.62
34241;BME280;20503;50.200;19.508;2023-02-18T07:47:38;101568.88;;;7.58;60.88
34241;BME280;20503;50.200;19.508;2023-02-18T07:52:45;101562.04;;;7.54;59.99
34241;BME280;20503;50.200;19.508;2023-02-18T07:57:52;101561.70;;;7.57;62.32
34241;BME280;20503;50.200;19.508;2023-02-18T08:03:00;101579.77;;;7.58;61.03
34241;BME280;20503;50.200;19.508;2023-02-18T08:08:12;101575.32;;;7.73;60.32
34241;BME280;20503;50.200;19.508;2023-02-18T08:13:15;101565.98;;;7.67;59.37
34241;BME280;20503;50.200;19.508;2023-02-18T08:18:24;101576.86;;;7.59;59.46
34241;BME280;20503;50.200;19.508;2023-02-18T08:23:30;101584.53;;;7.64;59.71
34241;BME280;20503;50.200;19.508;2023-02-18T08:28:37;101574.29;;;7.74;59.37
34241;BME280;20503;50.200;19.508;2023-02-18T08:33:45;101580.09;;;7.95;58.60
34241;BME280;20503;50.200;19.508;2023-02-18T08:38:53;101575.64;;;8.02;55.32
34241;BME280;20503;50.200;19.508;2023-02-18T08:44:00;101574.27;;;8.14;57.56
34241;BME280;20503;50.200;19.508;2023-02-18T08:49:07;101592.84;;;8.10;58.31
34241;BME280;20503;50.200;19.508;2023-02-18T08:54:16;101576.98;;;8.06;58.45
34241;BME280;20503;50.200;19.508;2023-02-18T08:59:24;101582.13;;;8.25;58.39
34241;BME280;20503;50.200;19.508;2023-02-18T09:04:30;101575.30;;;8.13;57.68
34241;BME280;20503;50.200;19.508;2023-02-18T09:09:37;101593.00;;;8.17;58.10
34241;BME280;20503;50.200;19.508;2023-02-18T09:14:47;101578.70;;;8.15;56.99
34241;BME280;20503;50.200;19.508;2023-02-18T09:19:52;101582.80;;;8.27;58.34
34241;BME280;20503;50.200;19.508;2023-02-18T09:25:00;101586.36;;;8.35;57.29
34241;BME280;20503;50.200;19.508;2023-02-18T09:30:08;101574.23;;;8.38;55.36
34241;BME280;20503;50.200;19.508;2023-02-18T09:35:15;101572.88;;;8.42;57.13
34241;BME280;20503;50.200;19.508;2023-02-18T09:40:31;101581.38;;;8.39;57.93
34241;BME280;20503;50.200;19.508;2023-02-18T09:45:34;101570.82;;;8.44;58.74
34241;BME280;20503;50.200;19.508;2023-02-18T09:50:37;101574.89;;;8.48;60.42
34241;BME280;20503;50.200;19.508;2023-02-18T09:55:44;101561.20;;;8.56;60.11
34241;BME280;20503;50.200;19.508;2023-02-18T10:11:30;101527.00;;;9.06;61.14
34241;BME280;20503;50.200;19.508;2023-02-18T10:16:32;101508.28;;;8.95;61.55
34241;BME280;20503;50.200;19.508;2023-02-18T10:21:34;101502.79;;;8.73;60.33
34241;BME280;20503;50.200;19.508;2023-02-18T10:26:37;101524.60;;;8.42;61.78
34241;BME280;20503;50.200;19.508;2023-02-18T10:31:44;101525.27;;;8.44;61.97
34241;BME280;20503;50.200;19.508;2023-02-18T10:36:55;101542.22;;;8.16;63.68
34241;BME280;20503;50.200;19.508;2023-02-18T10:47:26;101516.09;;;7.59;70.12
34241;BME280;20503;50.200;19.508;2023-02-18T10:57:47;101522.37;;;7.59;76.59
34241;BME280;20503;50.200;19.508;2023-02-18T11:08:08;101509.08;;;7.64;80.38
34241;BME280;20503;50.200;19.508;2023-02-18T11:13:22;101497.88;;;7.51;82.99
34241;BME280;20503;50.200;19.508;2023-02-18T11:23:48;101473.50;;;7.66;85.98
34241;BME280;20503;50.200;19.508;2023-02-18T11:29:00;101473.01;;;7.46;87.01
34241;BME280;20503;50.200;19.508;2023-02-18T11:34:04;101465.36;;;7.50;86.21
34241;BME280;20503;50.200;19.508;2023-02-18T11:49:33;101439.69;;;7.05;100.00
34241;BME280;20503;50.200;19.508;2023-02-18T11:54:34;101450.57;;;7.21;100.00
34241;BME280;20503;50.200;19.508;2023-02-18T11:59:37;101437.80;;;6.97;100.00
34241;BME280;20503;50.200;19.508;2023-02-18T12:04:44;101430.67;;;6.96;100.00
34241;BME280;20503;50.200;19.508;2023-02-18T12:09:50;101430.96;;;6.69;100.00
34241;BME280;20503;50.200;19.508;2023-02-18T12:14:56;101426.55;;;6.68;100.00
34241;BME280;20503;50.200;19.508;2023-02-18T12:25:25;101400.60;;;6.24;100.00
34241;BME280;20503;50.200;19.508;2023-02-18T12:41:09;101374.48;;;6.31;100.00
34241;BME280;20503;50.200;19.508;2023-02-18T13:17:37;101262.30;;;6.05;100.00
34241;BME280;20503;50.200;19.508;2023-02-18T13:22:40;101247.03;;;5.96;100.00
34241;BME280;20503;50.200;19.508;2023-02-18T13:43:32;101194.71;;;5.86;100.00
34241;BME280;20503;50.200;19.508;2023-02-18T13:48:41;101191.65;;;5.89;100.00
34241;BME280;20503;50.200;19.508;2023-02-18T13:53:49;101178.27;;;5.88;100.00
34241;BME280;20503;50.200;19.508;2023-02-18T13:59:01;101159.73;;;5.91;100.00
34241;BME280;20503;50.200;19.508;2023-02-18T14:04:03;101148.88;;;5.99;100.00
34241;BME280;20503;50.200;19.508;2023-02-18T14:14:30;101134.56;;;5.73;100.00
34241;BME280;20503;50.200;19.508;2023-02-18T14:19:31;101107.95;;;5.69;100.00
34241;BME280;20503;50.200;19.508;2023-02-18T14:25:15;101098.94;;;5.68;100.00
34241;BME280;20503;50.200;19.508;2023-02-18T14:29:50;101087.56;;;5.65;100.00
34241;BME280;20503;50.200;19.508;2023-02-18T14:35:06;101084.51;;;5.60;100.00
34241;BME280;20503;50.200;19.508;2023-02-18T14:50:36;101045.48;;;5.61;100.00
34241;BME280;20503;50.200;19.508;2023-02-18T14:55:43;101016.98;;;5.57;100.00
34241;BME280;20503;50.200;19.508;2023-02-18T15:00:47;101011.20;;;5.60;100.00
34241;BME280;20503;50.200;19.508;2023-02-18T15:05:49;101006.64;;;5.60;100.00
34241;BME280;20503;50.200;19.508;2023-02-18T15:10:56;100992.72;;;5.63;100.00
34241;BME280;20503;50.200;19.508;2023-02-18T15:16:07;100944.52;;;5.57;100.00
34241;BME280;20503;50.200;19.508;2023-02-18T15:26:22;100927.39;;;5.57;100.00
34241;BME280;20503;50.200;19.508;2023-02-18T15:31:29;100905.48;;;5.66;100.00
34241;BME280;20503;50.200;19.508;2023-02-18T15:36:30;100895.79;;;5.80;100.00
34241;BME280;20503;50.200;19.508;2023-02-18T15:41:32;100877.93;;;5.93;100.00
34241;BME280;20503;50.200;19.508;2023-02-18T15:46:33;100877.52;;;6.04;100.00
34241;BME280;20503;50.200;19.508;2023-02-18T15:51:34;100879.55;;;6.10;100.00
34241;BME280;20503;50.200;19.508;2023-02-18T15:56:38;100873.03;;;6.19;100.00
34241;BME280;20503;50.200;19.508;2023-02-18T16:01:40;100857.28;;;6.37;100.00
34241;BME280;20503;50.200;19.508;2023-02-18T16:06:49;100838.34;;;6.52;100.00
34241;BME280;20503;50.200;19.508;2023-02-18T16:11:54;100839.91;;;6.69;100.00
34241;BME280;20503;50.200;19.508;2023-02-18T16:17:12;100839.54;;;6.72;100.00
34241;BME280;20503;50.200;19.508;2023-02-18T16:22:25;100837.06;;;6.85;100.00
34241;BME280;20503;50.200;19.508;2023-02-18T16:27:32;100825.33;;;6.99;100.00
34241;BME280;20503;50.200;19.508;2023-02-18T16:32:34;100840.57;;;7.08;100.00
34241;BME280;20503;50.200;19.508;2023-02-18T16:37:35;100852.88;;;7.18;100.00
34241;BME280;20503;50.200;19.508;2023-02-18T16:42:40;100843.41;;;7.29;100.00
34241;BME280;20503;50.200;19.508;2023-02-18T16:47:43;100846.27;;;7.49;100.00
34241;BME280;20503;50.200;19.508;2023-02-18T16:52:47;100848.31;;;7.76;100.00
34241;BME280;20503;50.200;19.508;2023-02-18T16:57:48;100844.82;;;7.97;100.00
34241;BME280;20503;50.200;19.508;2023-02-18T17:02:54;100852.78;;;8.13;100.00
34241;BME280;20503;50.200;19.508;2023-02-18T17:13:14;100854.07;;;8.31;100.00
34241;BME280;20503;50.200;19.508;2023-02-18T17:18:15;100843.71;;;8.41;100.00
34241;BME280;20503;50.200;19.508;2023-02-18T17:23:19;100850.27;;;8.47;100.00
34241;BME280;20503;50.200;19.508;2023-02-18T17:28:22;100853.47;;;8.50;100.00
34241;BME280;20503;50.200;19.508;2023-02-18T17:33:24;100856.46;;;8.55;100.00
34241;BME280;20503;50.200;19.508;2023-02-18T17:38:25;100861.52;;;8.58;100.00
34241;BME280;20503;50.200;19.508;2023-02-18T17:43:27;100859.45;;;8.60;100.00
34241;BME280;20503;50.200;19.508;2023-02-18T17:48:29;100874.69;;;8.55;100.00
34241;BME280;20503;50.200;19.508;2023-02-18T17:53:30;100893.54;;;8.50;100.00
34241;BME280;20503;50.200;19.508;2023-02-18T17:58:31;100889.52;;;8.46;100.00
34241;BME280;20503;50.200;19.508;2023-02-18T18:03:33;100917.73;;;8.38;100.00
34241;BME280;20503;50.200;19.508;2023-02-18T18:08:34;100907.39;;;8.34;100.00
34241;BME280;20503;50.200;19.508;2023-02-18T18:13:35;100917.00;;;8.30;100.00
34241;BME280;20503;50.200;19.508;2023-02-18T18:18:37;100915.10;;;8.30;100.00
34241;BME280;20503;50.200;19.508;2023-02-18T18:23:38;100930.90;;;8.35;100.00
34241;BME280;20503;50.200;19.508;2023-02-18T18:28:39;100955.56;;;8.27;100.00
34241;BME280;20503;50.200;19.508;2023-02-18T18:33:48;100938.55;;;8.25;100.00
34241;BME280;20503;50.200;19.508;2023-02-18T18:38:53;100950.67;;;8.22;100.00
34241;BME280;20503;50.200;19.508;2023-02-18T18:44:03;100950.72;;;8.14;100.00
34241;BME280;20503;50.200;19.508;2023-02-18T18:49:08;100928.73;;;8.16;100.00
34241;BME280;20503;50.200;19.508;2023-02-18T18:54:15;100943.05;;;8.18;100.00
34241;BME280;20503;50.200;19.508;2023-02-18T18:59:23;100947.09;;;8.22;100.00
34241;BME280;20503;50.200;19.508;2023-02-18T19:04:31;100961.40;;;8.24;100.00
34241;BME280;20503;50.200;19.508;2023-02-18T19:09:39;100981.05;;;8.19;100.00
34241;BME280;20503;50.200;19.508;2023-02-18T19:14:47;100967.94;;;8.15;100.00
34241;BME280;20503;50.200;19.508;2023-02-18T19:19:55;100984.60;;;8.20;100.00
34241;BME280;20503;50.200;19.508;2023-02-18T19:25:03;100983.49;;;8.29;100.00
34241;BME280;20503;50.200;19.508;2023-02-18T19:30:16;101000.88;;;8.28;100.00
34241;BME280;20503;50.200;19.508;2023-02-18T19:35:18;100993.27;;;8.23;100.00
34241;BME280;20503;50.200;19.508;2023-02-18T19:40:28;101001.72;;;8.28;100.00
34241;BME280;20503;50.200;19.508;2023-02-18T19:45:33;101006.42;;;8.20;100.00
34241;BME280;20503;50.200;19.508;2023-02-18T19:50:42;101009.45;;;8.25;100.00
34241;BME280;20503;50.200;19.508;2023-02-18T19:56:00;101015.55;;;8.27;100.00
34241;BME280;20503;50.200;19.508;2023-02-18T20:01:03;101001.62;;;8.22;100.00
34241;BME280;20503;50.200;19.508;2023-02-18T20:06:05;101008.30;;;8.19;100.00
34241;BME280;20503;50.200;19.508;2023-02-18T20:11:11;101022.30;;;8.16;100.00
34241;BME280;20503;50.200;19.508;2023-02-18T20:16:19;101031.48;;;8.15;100.00
34241;BME280;20503;50.200;19.508;2023-02-18T20:21:26;101031.91;;;8.27;100.00
34241;BME280;20503;50.200;19.508;2023-02-18T20:26:34;101055.01;;;8.16;100.00
34241;BME280;20503;50.200;19.508;2023-02-18T20:31:41;101056.21;;;7.99;100.00
34241;BME280;20503;50.200;19.508;2023-02-18T20:36:49;101063.67;;;7.83;100.00
34241;BME280;20503;50.200;19.508;2023-02-18T20:41:56;101073.31;;;7.71;100.00
34241;BME280;20503;50.200;19.508;2023-02-18T20:47:04;101123.45;;;7.62;100.00
34241;BME280;20503;50.200;19.508;2023-02-18T20:52:12;101120.77;;;7.54;100.00
34241;BME280;20503;50.200;19.508;2023-02-18T20:57:19;101127.32;;;7.45;100.00
34241;BME280;20503;50.200;19.508;2023-02-18T21:02:26;101123.93;;;7.43;100.00
34241;BME280;20503;50.200;19.508;2023-02-18T21:07:34;101143.22;;;7.34;100.00
34241;BME280;20503;50.200;19.508;2023-02-18T21:12:42;101148.53;;;7.27;100.00
34241;BME280;20503;50.200;19.508;2023-02-18T21:17:49;101146.50;;;7.21;100.00
34241;BME280;20503;50.200;19.508;2023-02-18T21:22:57;101159.97;;;7.15;100.00
34241;BME280;20503;50.200;19.508;2023-02-18T21:28:05;101156.10;;;7.09;100.00
34241;BME280;20503;50.200;19.508;2023-02-18T21:33:12;101166.65;;;7.04;100.00
34241;BME280;20503;50.200;19.508;2023-02-18T21:38:20;101184.53;;;6.99;100.00
34241;BME280;20503;50.200;19.508;2023-02-18T21:43:27;101190.52;;;6.94;100.00
34241;BME280;20503;50.200;19.508;2023-02-18T21:48:35;101211.12;;;6.89;100.00
34241;BME280;20503;50.200;19.508;2023-02-18T21:53:48;101204.49;;;6.83;100.00
34241;BME280;20503;50.200;19.508;2023-02-18T21:58:52;101216.39;;;6.82;100.00
34241;BME280;20503;50.200;19.508;2023-02-18T22:03:58;101223.21;;;6.78;100.00
34241;BME280;20503;50.200;19.508;2023-02-18T22:09:06;101225.27;;;6.76;100.00
34241;BME280;20503;50.200;19.508;2023-02-18T22:14:14;101237.49;;;6.72;100.00
34241;BME280;20503;50.200;19.508;2023-02-18T22:19:20;101251.96;;;6.73;100.00
34241;BME280;20503;50.200;19.508;2023-02-18T22:24:30;101244.97;;;6.70;100.00
34241;BME280;20503;50.200;19.508;2023-02-18T22:29:36;101260.27;;;6.71;100.00
34241;BME280;20503;50.200;19.508;2023-02-18T22:34:43;101252.97;;;6.72;100.00
34241;BME280;20503;50.200;19.508;2023-02-18T22:39:51;101262.99;;;6.71;100.00
34241;BME280;20503;50.200;19.508;2023-02-18T22:44:58;101268.81;;;6.60;100.00
34241;BME280;20503;50.200;19.508;2023-02-18T22:50:07;101287.49;;;6.63;100.00
34241;BME280;20503;50.200;19.508;2023-02-18T22:55:13;101280.54;;;6.53;100.00
34241;BME280;20503;50.200;19.508;2023-02-18T23:00:25;101288.16;;;6.41;100.00
34241;BME280;20503;50.200;19.508;2023-02-18T23:05:29;101303.45;;;6.42;100.00
34241;BME280;20503;50.200;19.508;2023-02-18T23:10:36;101308.73;;;6.44;100.00
34241;BME280;20503;50.200;19.508;2023-02-18T23:21:05;101316.05;;;6.43;100.00
34241;BME280;20503;50.200;19.508;2023-02-18T23:26:22;101329.13;;;6.40;100.00
34241;BME280;20503;50.200;19.508;2023-02-18T23:31:25;101352.38;;;6.34;100.00
34241;BME280;20503;50.200;19.508;2023-02-18T23:36:29;101343.03;;;6.29;100.00
34241;BME280;20503;50.200;19.508;2023-02-18T23:41:30;101338.61;;;6.28;100.00
34241;BME280;20503;50.200;19.508;2023-02-18T23:46:32;101333.36;;;6.26;100.00
34241;BME280;20503;50.200;19.508;2023-02-18T23:51:37;101337.45;;;6.30;100.00
34241;BME280;20503;50.200;19.508;2023-02-18T23:56:45;101341.17;;;6.29;100.00
